Address 0xcfcb107e2c9c8b9715e78cf154906ae42b750b35 6

Txn Hash Method
Block
From
To
Value [Txn Fee]
0x077b686f537b7a6dfb0836dfb8a9db004be9eaae10d062a52e9dcfa424fa818bAny Swap Out17066302022-04-14 18:51:48239 days 6 hrs ago0xcfcb107e2c9c8b9715e78cf154906ae42b750b35OUT 0x7ae97042a4a0eb4d1eb370c34bfec71042a056b70 MOVR0.000094955
0x29634b16ce0a48c289d0f25fcdc248915928c5d661f165a0204423086a408da5Withdraw All17066272022-04-14 18:50:30239 days 6 hrs ago0xcfcb107e2c9c8b9715e78cf154906ae42b750b35OUT 0xc9a509da14525ad3710e9448a0839ee2e90e48b10 MOVR0.0003947375
0x4727cbae37113d8df1eb83921e70502933d4b8b8517c621a99a76d5816adab32Swapout10593492021-12-10 16:32:54364 days 8 hrs ago0xcfcb107e2c9c8b9715e78cf154906ae42b750b35OUT Multichain: BUSD Token0 MOVR0.000030283
0xd07413a3bfbd7fe6e4a718e41e4b76cf008b88f0987c6530061af709127bfa78Swap Exact Token...10593442021-12-10 16:31:54364 days 8 hrs ago0xcfcb107e2c9c8b9715e78cf154906ae42b750b35OUT Solarbeam: Solar Router0 MOVR0.000186855
0xce03bf1c99bd161603ecb0998714b21a3c2618fa44fcc20b796e2c40f00ecc00Approve10593132021-12-10 16:25:12364 days 8 hrs ago0xcfcb107e2c9c8b9715e78cf154906ae42b750b35OUT Multichain: USDC Token0 MOVR0.0001112775
0x1b79570ab2f151db4d042c4944db44f66d0fc726751c0e79d37506f818b02405Swap Exact Token...10592022021-12-10 16:02:06364 days 9 hrs ago0xcfcb107e2c9c8b9715e78cf154906ae42b750b35OUT Solarbeam: Solar Router0 MOVR0.0004013525
0x9b5d9e3a6ee31b9c4f3de5d85a692b6711a45758833235a0997d21ff34b31c5eApprove10591992021-12-10 16:01:30364 days 9 hrs ago0xcfcb107e2c9c8b9715e78cf154906ae42b750b35OUT RomeDAO: ROME Token0 MOVR0.0001109475
0x7ceda6ba53c26f9907546aa8f1ba815aefce857e4e607289285cf9df2aa74bf8Unstake10591882021-12-10 15:59:18364 days 9 hrs ago0xcfcb107e2c9c8b9715e78cf154906ae42b750b35OUT RomeDAO: Staking0 MOVR0.000064071
0xde14c0c9aa9f8a95a788a1fa8ea9c65d8282c95e77ddf3c77e8ebc022ee8995aApprove10591842021-12-10 15:58:30364 days 9 hrs ago0xcfcb107e2c9c8b9715e78cf154906ae42b750b35OUT RomeDAO: sROME Token0 MOVR0.000044267
0xa57e5f6b01bd7927dc300f1232fe8d0ecfc6949d7cfb7b8b71102e77b8f2fd7aStake9999882021-12-01 13:51:24373 days 11 hrs ago0xcfcb107e2c9c8b9715e78cf154906ae42b750b35OUT RomeDAO: Staking Helper0 MOVR0.000098885
0xb40ea5d258b10714e66c5e08f6172e029f561ff8c850309d398c3f9a6207d700Stake9954922021-11-30 17:34:24374 days 7 hrs ago0xcfcb107e2c9c8b9715e78cf154906ae42b750b35OUT RomeDAO: Staking Helper0 MOVR0.00120981
0x525369279f4f9e2c8399794040016da869aae1bffc084e195c0c71e0721f0640Approve9954862021-11-30 17:32:24374 days 7 hrs ago0xcfcb107e2c9c8b9715e78cf154906ae42b750b35OUT RomeDAO: ROME Token0 MOVR0.00044379
0x434b961792e6b080ffbc786e3b7c9b11dabb67afa5416ed5c1f616c1dcd9a37bWithdraw9954712021-11-30 17:26:06374 days 7 hrs ago0xcfcb107e2c9c8b9715e78cf154906ae42b750b35OUT RomeDAO: Presale0 MOVR0.000560838
0xaced70d1bf7773697314630fabf3640eb677ab171b04093cc56f33f19147db91Approve9954662021-11-30 17:24:55374 days 7 hrs ago0xcfcb107e2c9c8b9715e78cf154906ae42b750b35OUT RomeDAO: aROME0 MOVR0.00022212
0xcc9855a132b22dd59b98c773e89cdd8ce6312b2a5b949cfd36dc6362b9927d63Deposit All9657742021-11-25 14:13:42379 days 10 hrs ago0xcfcb107e2c9c8b9715e78cf154906ae42b750b35OUT 0xc9a509da14525ad3710e9448a0839ee2e90e48b10 MOVR0.000380227
0xe346327defec6a3f63101c7d5b37bafce7b55ba69354f7493c5e52ce27276459Approve9657722021-11-25 14:13:18379 days 10 hrs ago0xcfcb107e2c9c8b9715e78cf154906ae42b750b35OUT Beefy.Finance: BIFI Token0 MOVR0.000044511
0x6377df2f8779a50b37784f205c85953532c1b69eba97348f4d4371384e896cfbWithdraw9657682021-11-25 14:12:24379 days 10 hrs ago0xcfcb107e2c9c8b9715e78cf154906ae42b750b35OUT 0x4aabd0d73181325dd1609ce696ef048702de71530 MOVR0.000075275
0x0b52ae0b807d65e4f6ae4dd889722deff1d7aa91da59ef7e59b62664b1448b35Get Reward9657652021-11-25 14:11:42379 days 10 hrs ago0xcfcb107e2c9c8b9715e78cf154906ae42b750b35OUT 0x4aabd0d73181325dd1609ce696ef048702de71530 MOVR0.000081644
0xcaf07784c88e1a25324d107314a68bb32549d2f7d2740ba2145549a8ffdd443bStake9501632021-11-23 0:33:54382 days 30 mins ago0xcfcb107e2c9c8b9715e78cf154906ae42b750b35OUT 0x4aabd0d73181325dd1609ce696ef048702de71530 MOVR0.000076302
0xdbecca2d22991064ac43bff686e5feb4693d650fbed007ddd13becac77303d95Approve9501622021-11-23 0:32:54382 days 31 mins ago0xcfcb107e2c9c8b9715e78cf154906ae42b750b35OUT Beefy.Finance: BIFI Token0 MOVR0.000044511
0xf3124525eb0c8bb43083de15c26d6055fd0265a31b971ba1fab491caed9a1f2fSwap Exact ETH F...9501582021-11-23 0:31:48382 days 33 mins ago0xcfcb107e2c9c8b9715e78cf154906ae42b750b35OUT SushiSwap: Router0.9 MOVR0.000104337
0x99154d2072cf02de2b9c07d440bea80fa50940720ab57b2acebb9e7ab06ea026Swap Exact ETH F...9480802021-11-22 16:16:00382 days 8 hrs ago0xcfcb107e2c9c8b9715e78cf154906ae42b750b35OUT Solarbeam: Solar Router0.45 MOVR0.0003650625
0x938a371b08039517f9d2222815623d8dc31986c792544670ad6657a235b15258Transfer8569412021-11-05 23:53:42399 days 1 hr ago0xcfcb107e2c9c8b9715e78cf154906ae42b750b35OUT0x037bb0b7ff3365c7d5139020092e52a1fee5961e0.4469 MOVR0.000021
0x004e95e3bd4c95138a5aeaaa9330ebf209aadcd7c0f46e5cb9b1e284df248642Transfer8568772021-11-05 23:37:42399 days 1 hr ago0xcfcb107e2c9c8b9715e78cf154906ae42b750b35OUT0x037bb0b7ff3365c7d5139020092e52a1fee5961e1 MOVR0.000021
0x9c73bd61f0abc95b56fde1833c0def931c5c462c38ebcc56022ce915d0907fabTransfer8448122021-11-03 18:20:54401 days 6 hrs ago0xcfcb107e2c9c8b9715e78cf154906ae42b750b35OUT 0xcb58418aa51ba525aef0fe474109c0354d844b7c0 MOVR0.000013851
[ Download CSV Export 
Parent Txn Hash Block From To Value
Loading

Contract Name:
0

Compiler Version
0

Optimization Enabled:
0

Other Settings:
-NA-
Block Transaction Gas Used Reward
Age Block Fee Address BC Fee Address Voting Power Jailed Incoming
Block Uncle Number Difficulty Gas Used Reward
Loading
Loading
Make sure to use the "Vote Down" button for any spammy posts, and the "Vote Up" for interesting conversations.